• Join FlightAware (Why Join?)
  • Login
  • US Flag 
Trick or treat! (Boo!!) 
01:15PM EDT


 

Airport Tracker/Info


-or-


 

Live Flight TrackerFlight Track Log ✈ BJS542 ✈ 16-Aug-2013 ✈ KROC - KIAD

Flight Track Log - Related Links

Times and Time Zones

All times are in EDT time to prevent confusion due to time zone crossing. See the BJS542 flight status page for this flight to view local times or setup timezone preferences in your user account.

Time Position Orientation Groundspeed Altitude Reporting Facility
EDT Latitude Longitude Course Direction KTS MPH feet Rate Location/Type
05:50PM 43.1203 -77.6961 260° West 154 177 1,500  Level Cleveland Center
05:52PM 43.0975 -77.8792 260° West 249 287 9,000 2,520 Climbing Cleveland Center
05:53PM 43.0461 -77.9922 238° Southwest 325 374 10,000 1,440 Climbing Cleveland Center
05:54PM 42.9919 -78.0883 232° Southwest 330 380 11,900 2,880 Climbing Cleveland Center
05:55PM 42.9397 -78.1839 233° Southwest 323 372 15,800 3,120 Climbing Cleveland Center
05:56PM 42.8528 -78.2183 196° South 314 361 18,200 2,400 Climbing Cleveland Center
05:57PM 42.7442 -78.2056 175° South 324 373 20,600 2,040 Climbing Cleveland Center
05:58PM 42.6272 -78.1958 176° South 370 426 22,300 1,200 Climbing Cleveland Center
05:59PM 42.5122 -78.1775 173° South 411 473 23,000 1,260 Climbing Cleveland Center
06:00PM 42.3933 -78.1653 176° South 426 490 24,900 1,800 Climbing Cleveland Center
06:01PM 42.2761 -78.1531 176° South 426 490 26,700 1,020 Climbing Cleveland Center
06:02PM 42.1550 -78.1378 175° South 426 490 27,000 120 Climbing Cleveland Center
06:03PM 42.0294 -78.1231 175° South 441 507 27,000  Level Cleveland Center
06:04PM 41.9042 -78.1111 176° South 452 520 27,000  Level Cleveland Center
06:05PM 41.7786 -78.0911 173° South 452 520 27,000  Level Cleveland Center
06:06PM 41.6533 -78.0792 176° South 457 526 27,000  Level Cleveland Center
06:07PM 41.5300 -78.0644 175° South 457 526 27,000 -60 Level Cleveland Center
06:08PM 41.4067 -78.0500 175° South 457 526 26,900 -600 Descending Cleveland Center
06:09PM 41.3364 -78.0411 175° South 437 503 26,000 -1,140 Descending New York Center
06:10PM 41.2142 -78.0281 175° South 431 496 25,000 -540 Descending New York Center
06:11PM 41.0964 -78.0128 174° South 431 496 25,000 -60 Level New York Center
06:12PM 40.9783 -78.0003 175° South 431 496 24,900 -660 Descending New York Center
06:13PM 40.8642 -77.9578 164° South 431 496 23,700 -1,200 Descending New York Center
06:14PM 40.7575 -77.8919 155° Southeast 424 488 22,500 -1,200 Descending New York Center
06:15PM 40.6489 -77.8258 155° Southeast 429 494 21,300 -1,200 Descending New York Center
06:16PM 40.5444 -77.7606 155° Southeast 434 499 20,100 -1,200 Descending New York Center
06:17PM 40.4378 -77.6950 155° Southeast 429 494 18,900 -1,260 Descending New York Center
06:18PM 40.3211 -77.6208 154° Southeast 429 494 17,600 -1,380 Descending New York Center
06:19PM 40.2308 -77.5631 154° Southeast 419 482 16,200 -1,440 Descending New York Center
06:21PM 40.0833 -77.4667 153° Southeast 387 445 13,800 -1,200 Descending Potomac TRACON
06:22PM 39.9833 -77.4000 153° Southeast 379 436 13,000 -420 Descending Potomac TRACON
06:23PM 39.8833 -77.3500 159° South 378 435 13,000  Level Potomac TRACON
06:24PM 39.7833 -77.2833 153° Southeast 380 437 13,000 8,640 Level Potomac TRACON
06:25PM 39.6667 -77.2833 180° South 378 435 31,200 -1,440 Climbing Potomac TRACON
06:26PM 39.5833 -77.3500 212° Southwest 343 395 10,000 -10,920 Descending Potomac TRACON
06:27PM 39.5000 -77.4000 205° Southwest 300 345 9,400 -1,200 Descending Potomac TRACON
06:28PM 39.4333 -77.4500 210° Southwest 281 323 7,600 -1,920 Descending Potomac TRACON
06:29PM 39.3667 -77.4500 180° South 280 322 5,800 -1,800 Descending Potomac TRACON
06:30PM 39.3000 -77.4333 169° South 271 312 4,200 -900 Descending Potomac TRACON
06:31PM 39.2167 -77.4333 180° South 264 304 4,000 -120 Descending Potomac TRACON
06:32PM 39.1500 -77.4333 180° South 243 280 4,000 -600 Level Potomac TRACON
06:33PM 39.0833 -77.4333 180° South 225 259 2,900 -1,200 Descending Potomac TRACON
06:34PM 39.0167 -77.4333 180° South 223 257 1,600 -1,140 Descending Potomac TRACON
06:35PM 38.9833 -77.4333 180° South 148 170 700 -900 Descending Potomac TRACON
06:37PM 38.9474 -77.4599 90° East  Level Estimated
06:44PM 38.9474 -77.4599 90° East  Level Estimated
06:45PM 38.9474 -77.4599 90° East  Level Estimated
06:46PM 38.9474 -77.4599 90° East  Level Estimated
06:47PM 38.9474 -77.4599 90° East  Level Estimated
06:48PM 38.9474 -77.4599 90° East  Level Estimated
06:49PM 38.9474 -77.4599 90° East  Level Estimated